createdAt,value
2022-08-04T00:01:50.888Z,24.50
2022-08-04T00:04:34.733Z,24.60
2022-08-04T00:07:11.642Z,24.60
2022-08-04T00:09:49.133Z,24.70
2022-08-04T00:12:17.418Z,24.80
2022-08-04T00:14:49.172Z,24.80
2022-08-04T00:17:20.838Z,24.90
2022-08-04T00:19:49.104Z,24.90
2022-08-04T00:22:19.569Z,24.80
2022-08-04T00:24:46.445Z,24.80
2022-08-04T00:27:13.493Z,24.70
2022-08-04T00:29:40.260Z,24.70
2022-08-04T00:32:08.557Z,24.60
2022-08-04T00:34:36.783Z,24.60
2022-08-04T00:37:06.315Z,24.70
2022-08-04T00:39:33.665Z,24.70
2022-08-04T00:42:09.528Z,24.70
2022-08-04T00:45:09.279Z,24.70
2022-08-04T00:48:11.833Z,24.80
2022-08-04T00:50:46.145Z,24.90
2022-08-04T00:53:37.564Z,24.90
2022-08-04T00:56:23.260Z,24.90
2022-08-04T00:59:19.011Z,24.90
2022-08-04T01:02:00.464Z,24.90
2022-08-04T01:05:01.088Z,24.90
2022-08-04T01:08:15.301Z,24.90
2022-08-04T01:11:03.254Z,24.90
2022-08-04T01:13:59.644Z,24.90
2022-08-04T01:16:27.817Z,24.80
2022-08-04T01:19:17.024Z,24.80
2022-08-04T01:22:01.033Z,24.80
2022-08-04T01:24:39.619Z,24.80
2022-08-04T01:27:11.338Z,24.80
2022-08-04T01:29:47.214Z,24.80
2022-08-04T01:32:31.562Z,24.80
2022-08-04T01:35:46.695Z,24.80
2022-08-04T01:38:21.497Z,24.80
2022-08-04T01:40:54.155Z,24.80
2022-08-04T01:43:21.603Z,24.70
2022-08-04T01:45:57.789Z,24.80
2022-08-04T01:48:26.475Z,24.80
2022-08-04T01:50:56.295Z,24.80
2022-08-04T01:53:29.409Z,24.80
2022-08-04T01:55:57.351Z,24.80
2022-08-04T01:58:25.186Z,24.80
2022-08-04T02:01:02.513Z,24.80
2022-08-04T02:04:21.938Z,24.70
2022-08-04T02:06:48.207Z,24.70
2022-08-04T02:09:26.109Z,24.70
2022-08-04T02:12:04.189Z,24.70
2022-08-04T02:14:45.099Z,24.60
2022-08-04T02:17:38.696Z,24.60
2022-08-04T02:20:23.732Z,24.60
2022-08-04T02:22:59.917Z,24.60
2022-08-04T02:25:29.087Z,24.50
2022-08-04T02:28:01.184Z,24.50
2022-08-04T02:30:34.242Z,24.50
2022-08-04T02:33:06.793Z,24.50
2022-08-04T02:35:38.373Z,24.50
2022-08-04T02:38:32.455Z,24.50
2022-08-04T02:41:01.732Z,24.50
2022-08-04T02:43:51.264Z,24.50
2022-08-04T02:46:21.541Z,24.50
2022-08-04T02:48:50.527Z,24.50
2022-08-04T02:51:24.183Z,24.50
2022-08-04T02:53:54.183Z,24.50
2022-08-04T02:56:22.444Z,24.50
2022-08-04T02:58:53.305Z,24.50
2022-08-04T03:01:22.925Z,24.50
2022-08-04T03:04:24.994Z,24.50
2022-08-04T03:07:19.266Z,24.40
2022-08-04T03:09:56.303Z,24.40
2022-08-04T03:12:50.850Z,24.40
2022-08-04T03:15:48.264Z,24.40
2022-08-04T03:18:36.965Z,24.40
2022-08-04T03:21:50.318Z,24.40
2022-08-04T03:24:37.124Z,24.40
2022-08-04T03:27:34.044Z,24.40
2022-08-04T03:30:08.408Z,24.40
2022-08-04T03:33:06.181Z,24.40
2022-08-04T03:36:16.605Z,24.40
2022-08-04T03:39:08.882Z,24.40
2022-08-04T03:42:04.330Z,24.40
2022-08-04T03:44:42.262Z,24.40
2022-08-04T03:47:44.658Z,24.30
2022-08-04T03:50:27.968Z,24.30
2022-08-04T03:53:12.122Z,24.30
2022-08-04T03:55:42.304Z,24.30
2022-08-04T03:58:35.180Z,24.30
2022-08-04T04:01:23.514Z,24.30
2022-08-04T04:04:08.607Z,24.30
2022-08-04T04:06:41.559Z,24.30
2022-08-04T04:09:56.812Z,24.30
2022-08-04T04:12:38.592Z,24.30
2022-08-04T04:15:27.965Z,24.30
2022-08-04T04:18:33.421Z,24.30
2022-08-04T04:21:28.468Z,24.30
2022-08-04T04:24:15.402Z,24.30
2022-08-04T04:26:58.644Z,24.30
2022-08-04T04:29:30.213Z,24.30
2022-08-04T04:32:22.380Z,24.30
2022-08-04T04:35:04.374Z,24.30
2022-08-04T04:37:48.637Z,24.30
2022-08-04T04:40:34.236Z,24.30
2022-08-04T04:43:10.279Z,24.30
2022-08-04T04:46:07.879Z,24.30
2022-08-04T04:48:48.509Z,24.30
2022-08-04T04:51:33.451Z,24.30
2022-08-04T04:54:08.684Z,24.30
2022-08-04T04:56:43.883Z,24.30
2022-08-04T04:59:15.428Z,24.40
2022-08-04T05:02:07.580Z,24.30
2022-08-04T05:04:37.198Z,24.40
2022-08-04T05:07:28.593Z,24.40
2022-08-04T05:09:58.327Z,24.40
2022-08-04T05:13:05.235Z,24.40
2022-08-04T05:15:33.961Z,24.40
2022-08-04T05:18:04.129Z,24.40
2022-08-04T05:20:43.175Z,24.40
2022-08-04T05:23:17.019Z,24.40
2022-08-04T05:25:58.565Z,24.40
2022-08-04T05:28:45.526Z,24.40
2022-08-04T05:31:18.820Z,24.30
2022-08-04T05:33:54.327Z,24.30
2022-08-04T05:36:40.010Z,24.30
2022-08-04T05:39:13.157Z,24.30
2022-08-04T05:41:46.254Z,24.40
2022-08-04T05:44:20.017Z,24.40
2022-08-04T05:46:54.032Z,24.40
2022-08-04T05:49:23.378Z,24.40
2022-08-04T05:51:51.649Z,24.40
2022-08-04T05:54:20.930Z,24.40
2022-08-04T05:56:49.561Z,24.40
2022-08-04T05:59:18.540Z,24.40
2022-08-04T06:01:56.037Z,24.40
2022-08-04T06:04:35.271Z,24.40
2022-08-04T06:07:02.175Z,24.40
2022-08-04T06:09:29.952Z,24.50
2022-08-04T06:12:04.226Z,24.40
2022-08-04T06:14:43.896Z,24.40
2022-08-04T06:19:56.273Z,24.40
2022-08-04T06:20:17.886Z,24.40
2022-08-04T06:22:50.461Z,24.50
2022-08-04T06:25:20.782Z,24.50
2022-08-04T06:27:49.944Z,24.50
2022-08-04T06:30:19.228Z,24.50
2022-08-04T06:32:48.715Z,24.50
2022-08-04T06:35:19.501Z,24.50
2022-08-04T06:37:47.656Z,24.50
2022-08-04T06:40:29.343Z,24.50
2022-08-04T06:43:08.921Z,24.50
2022-08-04T06:45:39.774Z,24.50
2022-08-04T06:48:07.597Z,24.60
2022-08-04T06:51:29.345Z,24.50
2022-08-04T06:53:24.320Z,24.50
2022-08-04T06:55:52.144Z,24.60
2022-08-04T06:58:20.739Z,24.60
2022-08-04T07:00:48.484Z,24.60
2022-08-04T07:03:17.876Z,24.60
2022-08-04T07:05:47.195Z,24.60
2022-08-04T07:08:14.638Z,24.60
2022-08-04T07:10:41.768Z,24.60
2022-08-04T07:13:09.464Z,24.60
2022-08-04T07:15:38.877Z,24.60
2022-08-04T07:18:05.624Z,24.60
2022-08-04T07:20:36.148Z,24.60
2022-08-04T07:23:07.762Z,24.60
2022-08-04T07:25:58.628Z,24.60
2022-08-04T07:28:28.973Z,24.70
2022-08-04T07:30:57.487Z,24.60
2022-08-04T07:33:25.941Z,24.70
2022-08-04T07:36:05.174Z,24.70
2022-08-04T07:38:50.890Z,24.70
2022-08-04T07:41:40.627Z,24.70
2022-08-04T07:44:08.685Z,24.70
2022-08-04T07:46:36.947Z,24.70
2022-08-04T07:49:05.157Z,24.70
2022-08-04T07:51:33.278Z,24.70
2022-08-04T07:54:03.278Z,24.70
2022-08-04T07:56:31.393Z,24.70
2022-08-04T07:58:58.111Z,24.70
2022-08-04T08:01:25.016Z,24.70
2022-08-04T08:03:54.006Z,24.70
2022-08-04T08:06:32.606Z,24.60
2022-08-04T08:09:13.628Z,24.60
2022-08-04T08:12:37.544Z,24.50
2022-08-04T08:14:35.369Z,24.50
2022-08-04T08:17:04.045Z,24.50
2022-08-04T08:19:32.577Z,24.60
2022-08-04T08:22:00.757Z,24.70
2022-08-04T08:24:35.234Z,24.70
2022-08-04T08:27:06.773Z,24.70
2022-08-04T08:29:34.927Z,24.70
2022-08-04T08:32:08.177Z,24.80
2022-08-04T08:34:35.968Z,24.80
2022-08-04T08:37:12.331Z,24.80
2022-08-04T08:39:46.598Z,24.90
2022-08-04T08:42:31.441Z,24.80
2022-08-04T08:45:24.597Z,24.90
2022-08-04T08:48:29.083Z,24.90
2022-08-04T08:51:12.075Z,25.00
2022-08-04T08:54:03.261Z,25.00
2022-08-04T08:56:43.120Z,25.00
2022-08-04T08:59:38.053Z,25.00
2022-08-04T09:02:16.802Z,24.80
2022-08-04T09:05:05.067Z,24.80
2022-08-04T09:08:01.717Z,24.80
2022-08-04T09:10:33.806Z,24.80
2022-08-04T09:13:08.563Z,24.80
2022-08-04T09:16:27.707Z,24.70
2022-08-04T09:19:02.362Z,24.90
2022-08-04T09:21:51.219Z,25.30
2022-08-04T09:24:39.749Z,25.50
2022-08-04T09:27:24.406Z,25.20
2022-08-04T09:30:06.804Z,24.80
2022-08-04T09:32:39.121Z,24.60
2022-08-04T09:35:15.362Z,24.60
2022-08-04T09:37:54.490Z,24.80
2022-08-04T09:40:50.595Z,24.70
2022-08-04T09:43:59.095Z,24.90
2022-08-04T09:46:39.101Z,24.80
2022-08-04T09:49:22.669Z,24.80
2022-08-04T09:52:01.088Z,25.00
2022-08-04T09:55:00.432Z,25.00
2022-08-04T09:57:45.519Z,25.70
2022-08-04T10:00:16.754Z,26.20
2022-08-04T10:02:56.152Z,26.20
2022-08-04T10:05:28.501Z,26.10
2022-08-04T10:08:21.692Z,26.30
2022-08-04T10:11:03.783Z,26.70
2022-08-04T10:14:13.551Z,26.20
2022-08-04T10:16:47.605Z,25.80
2022-08-04T10:19:20.408Z,25.80
2022-08-04T10:22:30.000Z,25.90
2022-08-04T10:25:01.045Z,26.50
2022-08-04T10:27:34.439Z,26.20
2022-08-04T10:30:12.020Z,25.70
2022-08-04T10:32:44.258Z,25.60
2022-08-04T10:35:23.600Z,25.30
2022-08-04T10:38:13.206Z,25.40
2022-08-04T10:40:49.399Z,25.40
2022-08-04T10:43:29.561Z,25.70
2022-08-04T10:46:05.639Z,25.70
2022-08-04T10:48:57.148Z,25.60
2022-08-04T10:51:58.816Z,25.40
2022-08-04T10:54:49.632Z,25.80
2022-08-04T10:57:35.515Z,25.60
2022-08-04T11:00:04.928Z,25.40
2022-08-04T11:03:00.981Z,25.20
2022-08-04T11:05:43.883Z,25.20
2022-08-04T11:08:25.444Z,25.30
2022-08-04T11:11:19.257Z,25.60
2022-08-04T11:13:52.205Z,25.50
2022-08-04T11:16:27.661Z,25.00
2022-08-04T11:19:13.212Z,25.30
2022-08-04T11:21:44.937Z,25.70
2022-08-04T11:24:21.584Z,25.60
2022-08-04T11:27:00.685Z,25.60
2022-08-04T11:29:42.223Z,25.80
2022-08-04T11:32:26.344Z,25.40
2022-08-04T11:35:01.662Z,25.30
2022-08-04T11:37:46.541Z,26.20
2022-08-04T11:40:22.820Z,27.10
2022-08-04T11:42:57.604Z,27.50
2022-08-04T11:45:32.121Z,28.20
2022-08-04T11:48:05.764Z,28.50
2022-08-04T11:50:41.527Z,28.30
2022-08-04T11:53:10.779Z,27.90
2022-08-04T11:56:07.068Z,26.80
2022-08-04T11:58:26.049Z,26.20
2022-08-04T12:01:31.230Z,25.80
2022-08-04T12:04:26.800Z,26.80
2022-08-04T12:07:30.453Z,28.00
2022-08-04T12:10:40.911Z,27.80
2022-08-04T12:13:41.884Z,28.30
2022-08-04T12:16:22.357Z,28.50
2022-08-04T12:19:12.344Z,28.90
2022-08-04T12:21:53.005Z,28.40
2022-08-04T12:24:34.291Z,27.70
2022-08-04T12:27:10.789Z,29.20
2022-08-04T12:29:41.040Z,28.70
2022-08-04T12:32:13.628Z,28.70
2022-08-04T12:35:11.816Z,28.60
2022-08-04T12:38:02.642Z,29.50
2022-08-04T12:40:37.345Z,28.80
2022-08-04T12:43:22.655Z,28.60
2022-08-04T12:45:51.938Z,28.50
2022-08-04T12:48:21.479Z,28.90
2022-08-04T12:50:56.637Z,30.00
2022-08-04T12:53:32.068Z,30.80
2022-08-04T12:56:01.406Z,30.30
2022-08-04T12:58:42.601Z,30.40
2022-08-04T13:02:09.338Z,30.10
2022-08-04T13:04:29.207Z,30.80
2022-08-04T13:07:07.610Z,29.80
2022-08-04T13:09:37.253Z,29.60
2022-08-04T13:12:17.285Z,29.20
2022-08-04T13:14:47.987Z,28.50
2022-08-04T13:17:14.997Z,28.30
2022-08-04T13:19:47.465Z,28.70
2022-08-04T13:22:29.758Z,29.60
2022-08-04T13:26:40.723Z,29.70
2022-08-04T13:27:48.549Z,29.10
2022-08-04T13:30:22.821Z,29.60
2022-08-04T13:32:58.510Z,30.30
2022-08-04T13:35:54.545Z,29.70
2022-08-04T13:38:16.828Z,29.10
2022-08-04T13:40:44.601Z,28.30
2022-08-04T13:44:16.389Z,28.20
2022-08-04T13:46:33.597Z,28.10
2022-08-04T13:52:02.730Z,27.50
2022-08-04T13:54:42.385Z,27.00
2022-08-04T13:57:19.173Z,26.80
2022-08-04T13:59:52.601Z,26.50
2022-08-04T14:02:43.630Z,26.30
2022-08-04T14:05:33.897Z,26.20
2022-08-04T14:08:17.082Z,26.50
2022-08-04T14:10:54.868Z,26.60
2022-08-04T14:13:41.014Z,26.60
2022-08-04T14:16:17.517Z,26.50
2022-08-04T14:18:44.829Z,26.30
2022-08-04T14:21:14.209Z,26.20
2022-08-04T14:23:48.270Z,26.00
2022-08-04T14:26:15.644Z,25.90
2022-08-04T14:29:25.221Z,25.80
2022-08-04T14:31:30.988Z,26.00
2022-08-04T14:34:04.643Z,25.90
2022-08-04T14:37:13.064Z,25.80
2022-08-04T14:39:41.193Z,26.00
2022-08-04T14:42:08.299Z,26.50
2022-08-04T14:44:58.189Z,26.60
2022-08-04T14:47:52.361Z,26.20
2022-08-04T14:50:32.878Z,25.90
2022-08-04T14:53:22.340Z,25.70
2022-08-04T14:55:55.185Z,25.70
2022-08-04T14:58:34.087Z,25.80
2022-08-04T15:01:10.816Z,25.90
2022-08-04T15:03:52.363Z,25.80
2022-08-04T15:06:27.796Z,25.70
2022-08-04T15:08:57.544Z,25.70
2022-08-04T15:11:24.866Z,25.70
2022-08-04T15:13:56.138Z,25.70
2022-08-04T15:16:24.580Z,25.70
2022-08-04T15:18:54.636Z,25.60
2022-08-04T15:21:25.781Z,25.60
2022-08-04T15:23:52.566Z,25.60
2022-08-04T15:26:34.281Z,25.60
2022-08-04T15:29:10.149Z,25.60
2022-08-04T15:32:07.375Z,25.60
2022-08-04T15:34:47.256Z,25.70
2022-08-04T15:37:49.576Z,25.60
2022-08-04T15:40:32.798Z,25.40
2022-08-04T15:43:42.223Z,25.30
2022-08-04T15:46:42.888Z,25.30
2022-08-04T15:48:55.849Z,25.30
2022-08-04T15:51:30.345Z,25.20
2022-08-04T15:54:03.403Z,25.20
2022-08-04T15:56:30.934Z,25.30
2022-08-04T15:58:58.704Z,25.20
2022-08-04T16:01:28.513Z,25.30
2022-08-04T16:03:59.435Z,25.30
2022-08-04T16:06:29.354Z,25.60
2022-08-04T16:09:05.354Z,26.40
2022-08-04T16:11:40.028Z,26.40
2022-08-04T16:14:10.895Z,26.10
2022-08-04T16:16:38.407Z,26.20
2022-08-04T16:19:10.973Z,26.00
2022-08-04T16:21:52.994Z,26.10
2022-08-04T16:24:21.779Z,25.90
2022-08-04T16:26:55.188Z,25.70
2022-08-04T16:29:23.378Z,25.70
2022-08-04T16:32:05.542Z,25.80
2022-08-04T16:34:48.458Z,25.80
2022-08-04T16:37:18.800Z,25.50
2022-08-04T16:39:50.433Z,25.40
2022-08-04T16:42:34.248Z,25.30
2022-08-04T16:45:12.651Z,25.30
2022-08-04T16:47:48.450Z,25.30
2022-08-04T16:50:24.371Z,25.30
2022-08-04T16:52:52.875Z,25.30
2022-08-04T16:55:21.933Z,25.30
2022-08-04T16:57:58.671Z,25.30
2022-08-04T17:00:34.899Z,25.30
2022-08-04T17:03:05.794Z,25.40
2022-08-04T17:05:39.727Z,25.40
2022-08-04T17:10:55.440Z,25.40
2022-08-04T17:14:03.234Z,25.40
2022-08-04T17:16:17.746Z,25.50
2022-08-04T17:18:52.464Z,25.60
2022-08-04T17:21:25.269Z,25.60
2022-08-04T17:24:15.490Z,25.50
2022-08-04T17:26:45.454Z,25.60
2022-08-04T17:29:21.658Z,25.50
2022-08-04T17:31:48.450Z,25.60
2022-08-04T17:34:19.553Z,25.60
2022-08-04T17:36:48.025Z,25.60
2022-08-04T17:39:19.452Z,25.60
2022-08-04T17:41:49.087Z,25.60
2022-08-04T17:44:16.396Z,25.60
2022-08-04T17:49:52.418Z,25.60
2022-08-04T17:52:35.915Z,25.70
2022-08-04T17:55:13.571Z,25.70
2022-08-04T17:57:43.393Z,25.70
2022-08-04T18:00:19.942Z,25.70
2022-08-04T18:02:53.484Z,25.70
2022-08-04T18:05:54.098Z,25.70
2022-08-04T18:08:37.749Z,25.80
2022-08-04T18:11:03.122Z,25.80
2022-08-04T18:13:29.902Z,25.80
2022-08-04T18:16:22.317Z,25.80
2022-08-04T18:19:10.219Z,25.80
2022-08-04T18:21:46.403Z,25.70
2022-08-04T18:24:33.872Z,25.80
2022-08-04T18:27:01.768Z,25.80
2022-08-04T18:29:31.518Z,25.80
2022-08-04T18:32:00.319Z,25.80
2022-08-04T18:34:27.169Z,25.80
2022-08-04T18:36:59.224Z,25.80
2022-08-04T18:40:24.945Z,25.80
2022-08-04T18:42:14.896Z,25.90
2022-08-04T18:44:52.339Z,25.80
2022-08-04T18:47:54.566Z,25.80
2022-08-04T18:51:01.291Z,25.80
2022-08-04T18:53:01.050Z,25.80
2022-08-04T18:55:55.254Z,25.80
2022-08-04T18:58:27.488Z,25.80
2022-08-04T19:00:55.767Z,25.80
2022-08-04T19:03:23.397Z,25.80
2022-08-04T19:05:51.519Z,25.80
2022-08-04T19:08:33.652Z,25.90
2022-08-04T19:11:28.709Z,25.90
2022-08-04T19:13:54.862Z,25.90
2022-08-04T19:16:25.984Z,25.80
2022-08-04T19:18:52.660Z,25.80
2022-08-04T19:21:19.521Z,25.80
2022-08-04T19:24:30.649Z,25.80
2022-08-04T19:26:55.505Z,25.80
2022-08-04T19:29:22.263Z,25.80
2022-08-04T19:31:48.924Z,25.90
2022-08-04T19:34:17.951Z,26.00
2022-08-04T19:37:01.641Z,26.10
2022-08-04T19:39:31.357Z,26.10
2022-08-04T19:42:04.638Z,26.10
2022-08-04T19:44:33.007Z,26.10
2022-08-04T19:47:00.711Z,26.00
2022-08-04T19:50:05.114Z,26.00
2022-08-04T19:52:33.647Z,26.00
2022-08-04T19:55:01.142Z,26.00
2022-08-04T19:57:43.830Z,26.00
2022-08-04T20:00:14.333Z,26.00
2022-08-04T20:02:42.017Z,26.00
2022-08-04T20:05:09.431Z,25.90
2022-08-04T20:07:36.989Z,25.90
2022-08-04T20:10:06.231Z,26.00
2022-08-04T20:12:34.108Z,25.90
2022-08-04T20:15:01.355Z,25.90
2022-08-04T20:18:06.852Z,25.90
2022-08-04T20:20:16.727Z,25.90
2022-08-04T20:22:50.797Z,25.90
2022-08-04T20:25:36.680Z,25.90
2022-08-04T20:28:05.366Z,25.90
2022-08-04T20:30:33.436Z,25.80
2022-08-04T20:33:01.278Z,25.80
2022-08-04T20:35:30.996Z,25.80
2022-08-04T20:38:00.789Z,25.90
2022-08-04T20:40:29.085Z,25.90
2022-08-04T20:42:57.398Z,25.80
2022-08-04T20:45:55.713Z,25.80
2022-08-04T20:48:11.626Z,25.80
2022-08-04T20:50:38.245Z,25.80
2022-08-04T20:53:16.595Z,25.70
2022-08-04T20:55:54.976Z,25.80
2022-08-04T20:58:27.537Z,25.70
2022-08-04T21:00:55.448Z,25.70
2022-08-04T21:03:49.610Z,25.70
2022-08-04T21:06:09.110Z,25.70
2022-08-04T21:08:36.913Z,25.60
2022-08-04T21:11:06.685Z,25.60
2022-08-04T21:13:50.883Z,25.60
2022-08-04T21:16:53.927Z,25.70
2022-08-04T21:19:06.702Z,25.70
2022-08-04T21:21:40.786Z,25.60
2022-08-04T21:24:07.807Z,25.60
2022-08-04T21:26:35.512Z,25.50
2022-08-04T21:29:04.531Z,25.50
2022-08-04T21:34:39.236Z,25.40
2022-08-04T21:37:07.102Z,25.40
2022-08-04T21:39:50.104Z,25.40
2022-08-04T21:42:27.811Z,25.40
2022-08-04T21:44:56.697Z,25.40
2022-08-04T21:47:24.042Z,25.40
2022-08-04T21:49:56.017Z,25.40
2022-08-04T21:52:24.249Z,25.40
2022-08-04T21:54:54.778Z,25.40
2022-08-04T21:57:22.445Z,25.40
2022-08-04T21:59:51.889Z,25.40
2022-08-04T22:02:18.635Z,25.40
2022-08-04T22:04:45.557Z,25.30
2022-08-04T22:07:12.292Z,25.30
2022-08-04T22:10:00.358Z,25.30
2022-08-04T22:12:30.178Z,25.30
2022-08-04T22:14:59.703Z,25.30
2022-08-04T22:17:35.378Z,25.30
2022-08-04T22:20:04.351Z,25.40
2022-08-04T22:22:34.756Z,25.40
2022-08-04T22:25:12.409Z,25.40
2022-08-04T22:28:01.041Z,25.30
2022-08-04T22:30:33.214Z,25.30
2022-08-04T22:33:07.615Z,25.30
2022-08-04T22:35:43.787Z,25.40
2022-08-04T22:38:24.004Z,25.40
2022-08-04T22:41:07.193Z,25.40
2022-08-04T22:43:36.225Z,25.30
2022-08-04T22:46:09.348Z,25.40
2022-08-04T22:48:43.611Z,25.30
2022-08-04T22:51:13.001Z,25.30
2022-08-04T22:53:40.131Z,25.30
2022-08-04T22:56:38.048Z,25.20
2022-08-04T22:59:10.922Z,25.30
2022-08-04T23:01:58.679Z,25.20
2022-08-04T23:04:28.144Z,25.20
2022-08-04T23:06:54.962Z,25.20
2022-08-04T23:09:27.024Z,25.20
2022-08-04T23:12:25.143Z,25.20
2022-08-04T23:14:53.660Z,25.10
2022-08-04T23:17:22.136Z,25.20
2022-08-04T23:19:57.831Z,25.30
2022-08-04T23:22:37.175Z,25.30
2022-08-04T23:25:15.863Z,25.20
2022-08-04T23:27:48.282Z,25.20
2022-08-04T23:30:19.473Z,25.10
2022-08-04T23:32:46.175Z,25.20
2022-08-04T23:35:15.038Z,25.10
2022-08-04T23:37:56.246Z,25.00
2022-08-04T23:40:32.762Z,25.00
2022-08-04T23:43:16.885Z,24.90
2022-08-04T23:46:06.907Z,24.90
2022-08-04T23:48:32.859Z,25.00
2022-08-04T23:51:14.901Z,25.00
2022-08-04T23:54:01.801Z,25.10
2022-08-04T23:56:34.580Z,25.20
2022-08-04T23:59:03.403Z,25.10
